createdAt,value
2022-08-12T00:01:07.310Z,3.27
2022-08-12T00:03:53.897Z,2.93
2022-08-12T00:06:40.511Z,3.23
2022-08-12T00:09:27.094Z,3.00
2022-08-12T00:12:13.501Z,3.63
2022-08-12T00:15:01.915Z,3.20
2022-08-12T00:17:48.475Z,3.00
2022-08-12T00:20:34.192Z,2.72
2022-08-12T00:23:20.709Z,3.20
2022-08-12T00:26:20.583Z,3.23
2022-08-12T00:29:10.910Z,2.97
2022-08-12T00:31:58.577Z,2.80
2022-08-12T00:34:46.396Z,3.00
2022-08-12T00:37:34.385Z,2.73
2022-08-12T00:40:21.141Z,3.60
2022-08-12T00:42:48.754Z,3.60
2022-08-12T00:45:24.585Z,3.83
2022-08-12T00:47:55.259Z,3.50
2022-08-12T00:50:25.980Z,3.00
2022-08-12T00:52:54.721Z,3.30
2022-08-12T00:55:23.104Z,3.23
2022-08-12T00:57:52.154Z,3.70
2022-08-12T01:00:22.953Z,3.20
2022-08-12T01:02:53.119Z,3.00
2022-08-12T01:05:42.286Z,3.30
2022-08-12T01:08:43.281Z,3.67
2022-08-12T01:11:32.796Z,3.17
2022-08-12T01:14:02.986Z,3.60
2022-08-12T01:16:31.734Z,3.83
2022-08-12T01:19:01.119Z,3.78
2022-08-12T01:21:57.928Z,3.10
2022-08-12T01:24:44.777Z,3.63
2022-08-12T01:27:16.461Z,3.03
2022-08-12T01:29:47.349Z,3.00
2022-08-12T01:32:17.353Z,3.50
2022-08-12T01:34:52.281Z,3.63
2022-08-12T01:37:23.378Z,3.45
2022-08-12T01:40:33.785Z,3.65
2022-08-12T01:42:50.610Z,3.20
2022-08-12T01:45:24.868Z,3.72
2022-08-12T01:48:26.125Z,3.58
2022-08-12T01:51:05.572Z,3.58
2022-08-12T01:53:50.163Z,3.70
2022-08-12T01:56:26.523Z,3.47
2022-08-12T01:59:16.135Z,3.45
2022-08-12T02:01:48.019Z,3.67
2022-08-12T02:04:42.856Z,3.45
2022-08-12T02:07:45.454Z,3.28
2022-08-12T02:10:50.610Z,3.17
2022-08-12T02:13:48.886Z,3.10
2022-08-12T02:16:33.089Z,3.50
2022-08-12T02:19:22.524Z,3.03
2022-08-12T02:21:59.928Z,3.42
2022-08-12T02:24:31.402Z,3.30
2022-08-12T02:27:01.893Z,3.28
2022-08-12T02:29:31.773Z,3.38
2022-08-12T02:32:00.666Z,3.20
2022-08-12T02:34:30.342Z,3.33
2022-08-12T02:37:03.783Z,3.65
2022-08-12T02:39:34.756Z,3.45
2022-08-12T02:42:06.895Z,3.97
2022-08-12T02:44:43.814Z,2.97
2022-08-12T02:47:59.230Z,3.35
2022-08-12T02:50:06.959Z,3.47
2022-08-12T02:52:36.121Z,3.28
2022-08-12T02:55:28.433Z,3.00
2022-08-12T02:58:06.717Z,3.03
2022-08-12T03:00:40.499Z,3.83
2022-08-12T03:03:11.254Z,3.72
2022-08-12T03:06:10.589Z,4.43
2022-08-12T03:08:43.442Z,3.80
2022-08-12T03:11:20.808Z,4.10
2022-08-12T03:13:54.658Z,3.70
2022-08-12T03:16:25.300Z,3.50
2022-08-12T03:18:54.637Z,3.97
2022-08-12T03:21:55.418Z,3.78
2022-08-12T03:24:18.640Z,3.53
2022-08-12T03:26:49.343Z,3.80
2022-08-12T03:29:18.196Z,3.80
2022-08-12T03:31:49.618Z,3.50
2022-08-12T03:34:29.724Z,3.88
2022-08-12T03:36:58.655Z,3.80
2022-08-12T03:39:40.837Z,4.18
2022-08-12T03:42:22.145Z,4.22
2022-08-12T03:45:16.307Z,3.55
2022-08-12T03:48:19.116Z,3.67
2022-08-12T03:51:06.590Z,3.53
2022-08-12T03:53:53.135Z,3.90
2022-08-12T03:56:38.758Z,3.90
2022-08-12T03:59:26.397Z,4.18
2022-08-12T04:01:58.306Z,3.85
2022-08-12T04:04:34.030Z,3.33
2022-08-12T04:07:06.686Z,3.88
2022-08-12T04:09:35.369Z,3.50
2022-08-12T04:12:22.185Z,3.53
2022-08-12T04:14:57.023Z,3.88
2022-08-12T04:17:28.394Z,3.95
2022-08-12T04:19:59.329Z,3.88
2022-08-12T04:22:30.957Z,4.10
2022-08-12T04:25:02.050Z,3.80
2022-08-12T04:27:32.397Z,3.80
2022-08-12T04:30:20.997Z,3.60
2022-08-12T04:32:50.884Z,3.50
2022-08-12T04:35:21.449Z,4.25
2022-08-12T04:37:58.953Z,3.85
2022-08-12T04:40:31.855Z,4.13
2022-08-12T04:43:02.334Z,3.70
2022-08-12T04:45:31.444Z,3.50
2022-08-12T04:47:59.849Z,3.78
2022-08-12T04:50:36.246Z,3.92
2022-08-12T04:53:08.127Z,3.83
2022-08-12T04:55:39.020Z,3.40
2022-08-12T04:58:07.836Z,4.43
2022-08-12T05:00:37.932Z,4.05
2022-08-12T05:03:06.687Z,3.10
2022-08-12T05:05:38.774Z,3.38
2022-08-12T05:08:12.864Z,3.80
2022-08-12T05:10:41.237Z,3.72
2022-08-12T05:13:12.281Z,3.50
2022-08-12T05:16:03.924Z,3.55
2022-08-12T05:18:31.202Z,4.05
2022-08-12T05:21:01.199Z,4.72
2022-08-12T05:23:32.091Z,3.63
2022-08-12T05:26:01.193Z,3.70
2022-08-12T05:28:30.899Z,4.50
2022-08-12T05:31:01.873Z,3.70
2022-08-12T05:33:37.753Z,3.70
2022-08-12T05:36:09.520Z,4.13
2022-08-12T05:38:55.348Z,3.80
2022-08-12T05:41:24.565Z,4.10
2022-08-12T05:43:54.788Z,3.80
2022-08-12T05:46:25.611Z,3.40
2022-08-12T05:48:55.563Z,3.40
2022-08-12T05:51:40.322Z,3.88
2022-08-12T05:54:10.522Z,3.90
2022-08-12T05:56:40.157Z,3.65
2022-08-12T05:59:12.794Z,3.42
2022-08-12T06:02:09.313Z,3.92
2022-08-12T06:04:32.309Z,3.75
2022-08-12T06:08:00.793Z,4.00
2022-08-12T06:09:51.333Z,3.70
2022-08-12T06:12:23.790Z,3.70
2022-08-12T06:14:55.088Z,4.50
2022-08-12T06:17:23.434Z,4.00
2022-08-12T06:20:29.542Z,3.20
2022-08-12T06:22:41.972Z,3.78
2022-08-12T06:25:18.543Z,3.55
2022-08-12T06:28:07.234Z,3.97
2022-08-12T06:30:39.164Z,3.80
2022-08-12T06:33:23.079Z,4.00
2022-08-12T06:35:57.497Z,4.00
2022-08-12T06:38:29.190Z,3.63
2022-08-12T06:41:17.414Z,3.67
2022-08-12T06:44:06.015Z,4.38
2022-08-12T06:46:36.754Z,3.83
2022-08-12T06:49:07.054Z,3.25
2022-08-12T06:51:35.765Z,3.67
2022-08-12T06:54:05.810Z,3.92
2022-08-12T06:57:02.403Z,3.25
2022-08-12T06:59:23.520Z,3.87
2022-08-12T07:01:52.159Z,3.30
2022-08-12T07:04:38.445Z,4.20
2022-08-12T07:07:08.353Z,3.80
2022-08-12T07:10:02.841Z,4.33
2022-08-12T07:12:28.510Z,3.57
2022-08-12T07:14:58.109Z,3.43
2022-08-12T07:17:26.622Z,3.77
2022-08-12T07:19:59.237Z,3.93
2022-08-12T07:22:30.328Z,4.00
2022-08-12T07:25:17.293Z,3.93
2022-08-12T07:27:46.833Z,4.13
2022-08-12T07:30:15.481Z,3.37
2022-08-12T07:32:49.788Z,3.90
2022-08-12T07:35:19.583Z,3.60
2022-08-12T07:37:50.649Z,3.80
2022-08-12T07:40:21.141Z,3.80
2022-08-12T07:42:49.685Z,3.47
2022-08-12T07:45:20.434Z,3.87
2022-08-12T07:47:50.773Z,3.80
2022-08-12T07:50:23.767Z,3.53
2022-08-12T07:52:52.295Z,3.50
2022-08-12T07:55:22.169Z,3.80
2022-08-12T07:57:58.668Z,3.37
2022-08-12T08:00:28.636Z,3.47
2022-08-12T08:02:57.535Z,3.40
2022-08-12T08:05:29.120Z,4.10
2022-08-12T08:08:01.864Z,3.57
2022-08-12T08:10:33.455Z,3.50
2022-08-12T08:13:05.330Z,3.70
2022-08-12T08:16:01.324Z,3.10
2022-08-12T08:18:27.537Z,3.00
2022-08-12T08:21:06.032Z,3.30
2022-08-12T08:23:56.200Z,3.30
2022-08-12T08:26:27.382Z,3.57
2022-08-12T08:28:55.742Z,3.00
2022-08-12T08:31:24.254Z,3.30
2022-08-12T08:34:04.961Z,3.50
2022-08-12T08:36:45.411Z,3.00
2022-08-12T08:39:17.147Z,3.27
2022-08-12T08:42:17.302Z,3.67
2022-08-12T08:44:49.683Z,3.10
2022-08-12T08:47:46.684Z,3.03
2022-08-12T08:50:16.364Z,2.50
2022-08-12T08:52:45.178Z,3.13
2022-08-12T08:55:17.021Z,2.40
2022-08-12T08:57:52.728Z,2.67
2022-08-12T09:00:22.955Z,2.90
2022-08-12T09:02:58.485Z,3.40
2022-08-12T09:05:28.313Z,2.97
2022-08-12T09:08:26.968Z,2.17
2022-08-12T09:11:00.062Z,2.70
2022-08-12T09:14:11.253Z,2.30
2022-08-12T09:16:20.198Z,2.90
2022-08-12T09:18:52.227Z,2.40
2022-08-12T09:21:22.979Z,2.50
2022-08-12T09:24:00.274Z,2.80
2022-08-12T09:30:10.661Z,2.80
2022-08-12T09:32:56.008Z,3.00
2022-08-12T09:35:02.228Z,2.43
2022-08-12T09:37:55.218Z,2.40
2022-08-12T09:40:55.782Z,2.23
2022-08-12T09:43:28.264Z,2.70
2022-08-12T09:46:11.237Z,2.80
2022-08-12T09:48:55.759Z,2.80
2022-08-12T09:51:38.409Z,2.47
2022-08-12T09:54:42.654Z,2.60
2022-08-12T09:58:45.563Z,2.93
2022-08-12T10:00:17.091Z,2.43
2022-08-12T10:03:03.780Z,2.53
2022-08-12T10:06:20.439Z,2.80
2022-08-12T10:08:27.620Z,2.97
2022-08-12T10:11:18.643Z,3.07
2022-08-12T10:13:52.673Z,2.73
2022-08-12T10:16:23.137Z,2.97
2022-08-12T10:18:55.082Z,3.20
2022-08-12T10:21:36.071Z,2.60
2022-08-12T10:24:07.246Z,2.90
2022-08-12T10:26:54.400Z,2.47
2022-08-12T10:30:38.041Z,2.40
2022-08-12T10:32:45.464Z,3.20
2022-08-12T10:35:17.754Z,2.80
2022-08-12T10:38:33.550Z,2.33
2022-08-12T10:40:57.732Z,2.60
2022-08-12T10:43:56.005Z,2.50
2022-08-12T10:46:30.530Z,2.70
2022-08-12T10:49:05.307Z,2.30
2022-08-12T10:52:33.094Z,2.57
2022-08-12T10:54:43.928Z,2.20
2022-08-12T10:58:12.660Z,2.60
2022-08-12T11:00:33.973Z,2.20
2022-08-12T11:04:26.953Z,2.33
2022-08-12T11:07:09.296Z,2.47
2022-08-12T11:08:43.232Z,2.10
2022-08-12T11:12:07.751Z,2.27
2022-08-12T11:14:13.133Z,2.80
2022-08-12T11:17:33.763Z,2.67
2022-08-12T11:19:46.462Z,2.30
2022-08-12T11:22:14.901Z,2.33
2022-08-12T11:24:51.710Z,2.73
2022-08-12T11:27:20.337Z,2.30
2022-08-12T11:30:01.778Z,2.33
2022-08-12T11:32:39.161Z,2.17
2022-08-12T11:35:09.318Z,2.37
2022-08-12T11:37:57.852Z,2.40
2022-08-12T11:40:29.746Z,2.00
2022-08-12T11:43:17.190Z,2.60
2022-08-12T11:45:53.418Z,2.20
2022-08-12T11:48:27.147Z,2.10
2022-08-12T11:50:56.718Z,2.30
2022-08-12T11:53:56.962Z,2.00
2022-08-12T11:56:14.813Z,2.50
2022-08-12T12:02:02.847Z,2.40
2022-08-12T12:04:29.226Z,2.17
2022-08-12T12:07:07.257Z,2.03
2022-08-12T12:09:52.323Z,2.33
2022-08-12T12:12:25.008Z,2.00
2022-08-12T12:14:55.010Z,2.97
2022-08-12T12:17:24.815Z,2.20
2022-08-12T12:19:53.791Z,2.50
2022-08-12T12:22:30.858Z,2.67
2022-08-12T12:25:12.788Z,2.60
2022-08-12T12:28:05.781Z,2.57
2022-08-12T12:30:36.026Z,2.80
2022-08-12T12:33:07.513Z,2.00
2022-08-12T12:36:16.595Z,2.30
2022-08-12T12:38:27.245Z,2.40
2022-08-12T12:40:55.590Z,2.10
2022-08-12T12:43:28.439Z,2.17
2022-08-12T12:46:05.572Z,2.00
2022-08-12T12:48:33.992Z,2.53
2022-08-12T12:51:49.297Z,2.20
2022-08-12T12:54:09.980Z,2.10
2022-08-12T12:56:42.994Z,2.10
2022-08-12T12:59:54.799Z,2.40
2022-08-12T13:02:08.664Z,2.30
2022-08-12T13:04:38.248Z,2.20
2022-08-12T13:07:08.030Z,2.60
2022-08-12T13:09:36.967Z,2.20
2022-08-12T13:12:10.541Z,2.30
2022-08-12T13:14:40.655Z,2.43
2022-08-12T13:17:11.393Z,2.00
2022-08-12T13:19:46.599Z,2.17
2022-08-12T13:22:20.480Z,2.47
2022-08-12T13:24:52.215Z,2.40
2022-08-12T13:27:28.407Z,2.50
2022-08-12T13:30:10.657Z,2.03
2022-08-12T13:32:41.838Z,2.30
2022-08-12T13:35:20.419Z,2.37
2022-08-12T13:38:02.635Z,2.40
2022-08-12T13:40:34.484Z,2.50
2022-08-12T13:43:07.120Z,2.57
2022-08-12T13:45:37.156Z,2.43
2022-08-12T13:48:07.120Z,2.40
2022-08-12T13:50:37.783Z,2.73
2022-08-12T13:53:23.689Z,2.07
2022-08-12T13:56:01.970Z,1.97
2022-08-12T13:58:33.055Z,2.20
2022-08-12T14:01:06.540Z,2.30
2022-08-12T14:03:50.296Z,2.47
2022-08-12T14:06:21.481Z,1.87
2022-08-12T14:08:54.797Z,2.23
2022-08-12T14:11:25.428Z,2.17
2022-08-12T14:14:04.259Z,2.13
2022-08-12T14:16:48.674Z,2.13
2022-08-12T14:19:22.889Z,2.47
2022-08-12T14:21:59.778Z,1.87
2022-08-12T14:24:45.283Z,1.80
2022-08-12T14:27:14.461Z,2.20
2022-08-12T14:30:15.671Z,2.03
2022-08-12T14:32:46.890Z,1.87
2022-08-12T14:35:15.343Z,2.13
2022-08-12T14:37:56.332Z,1.60
2022-08-12T14:40:29.474Z,2.00
2022-08-12T14:42:58.839Z,1.90
2022-08-12T14:45:44.565Z,1.80
2022-08-12T14:48:23.351Z,1.70
2022-08-12T14:52:07.798Z,1.90
2022-08-12T14:56:59.743Z,2.00
2022-08-12T14:59:55.683Z,2.07
2022-08-12T15:02:26.526Z,2.30
2022-08-12T15:04:59.673Z,1.77
2022-08-12T15:07:49.386Z,2.10
2022-08-12T15:10:32.515Z,2.20
2022-08-12T15:13:08.030Z,2.10
2022-08-12T15:15:45.779Z,2.27
2022-08-12T15:18:21.660Z,1.90
2022-08-12T15:21:01.165Z,2.00
2022-08-12T15:23:55.093Z,2.20
2022-08-12T15:26:30.846Z,1.90
2022-08-12T15:29:07.481Z,2.47
2022-08-12T15:31:59.887Z,1.97
2022-08-12T15:34:39.046Z,2.40
2022-08-12T15:37:17.282Z,2.10
2022-08-12T15:40:00.833Z,2.10
2022-08-12T15:42:37.023Z,2.30
2022-08-12T15:45:11.211Z,2.17
2022-08-12T15:48:16.220Z,2.07
2022-08-12T15:50:45.710Z,5.10
2022-08-12T15:53:55.012Z,4.27
2022-08-12T15:56:29.568Z,5.50
2022-08-12T15:59:03.534Z,5.60
2022-08-12T16:01:35.448Z,1.90
2022-08-12T16:04:17.099Z,2.30
2022-08-12T16:07:10.210Z,1.93
2022-08-12T16:09:55.750Z,1.90
2022-08-12T16:12:32.955Z,2.40
2022-08-12T16:15:04.327Z,2.20
2022-08-12T16:18:14.994Z,1.80
2022-08-12T16:20:33.462Z,2.10
2022-08-12T16:23:50.980Z,2.30
2022-08-12T16:26:06.006Z,1.83
2022-08-12T16:28:39.344Z,2.10
2022-08-12T16:31:22.701Z,2.10
2022-08-12T16:33:59.921Z,1.80
2022-08-12T16:36:35.108Z,2.20
2022-08-12T16:39:07.381Z,1.70
2022-08-12T16:41:43.109Z,1.80
2022-08-12T16:44:19.589Z,1.90
2022-08-12T16:46:58.022Z,1.90
2022-08-12T16:49:36.617Z,2.10
2022-08-12T16:52:14.879Z,1.93
2022-08-12T16:54:48.101Z,1.70
2022-08-12T16:57:42.949Z,1.80
2022-08-12T17:00:17.209Z,1.63
2022-08-12T17:02:54.836Z,1.80
2022-08-12T17:05:31.374Z,1.80
2022-08-12T17:08:01.029Z,1.83
2022-08-12T17:10:37.021Z,1.90
2022-08-12T17:13:10.083Z,1.60
2022-08-12T17:15:50.823Z,1.77
2022-08-12T17:18:42.978Z,1.80
2022-08-12T17:21:17.521Z,2.33
2022-08-12T17:23:53.445Z,2.53
2022-08-12T17:26:28.389Z,1.80
2022-08-12T17:29:00.252Z,1.83
2022-08-12T17:31:59.784Z,1.53
2022-08-12T17:34:33.395Z,1.50
2022-08-12T17:37:05.547Z,2.13
2022-08-12T17:40:16.018Z,2.43
2022-08-12T17:42:33.010Z,2.83
2022-08-12T17:45:18.207Z,2.63
2022-08-12T17:48:04.719Z,2.00
2022-08-12T17:50:38.021Z,1.50
2022-08-12T17:53:10.170Z,1.80
2022-08-12T17:55:47.905Z,1.47
2022-08-12T17:58:17.962Z,1.70
2022-08-12T18:00:47.495Z,1.90
2022-08-12T18:04:04.522Z,1.83
2022-08-12T18:06:14.406Z,1.67
2022-08-12T18:08:53.537Z,1.60
2022-08-12T18:12:04.041Z,1.50
2022-08-12T18:14:31.227Z,1.40
2022-08-12T18:17:01.717Z,1.90
2022-08-12T18:19:34.303Z,1.97
2022-08-12T18:22:21.669Z,1.80
2022-08-12T18:25:00.814Z,1.90
2022-08-12T18:27:46.872Z,1.63
2022-08-12T18:30:29.512Z,1.77
2022-08-12T18:33:04.894Z,1.70
2022-08-12T18:35:47.435Z,2.10
2022-08-12T18:38:24.882Z,1.70
2022-08-12T18:41:21.477Z,1.90
2022-08-12T18:43:59.774Z,1.87
2022-08-12T18:46:34.921Z,1.77
2022-08-12T18:49:18.780Z,1.90
2022-08-12T18:51:55.465Z,1.57
2022-08-12T18:54:34.136Z,1.87
2022-08-12T18:57:19.580Z,1.50
2022-08-12T19:00:01.711Z,1.70
2022-08-12T19:02:40.371Z,1.90
2022-08-12T19:05:14.364Z,1.90
2022-08-12T19:07:49.673Z,1.77
2022-08-12T19:10:32.298Z,1.93
2022-08-12T19:13:23.701Z,1.97
2022-08-12T19:15:57.835Z,1.90
2022-08-12T19:18:31.874Z,1.63
2022-08-12T19:21:06.312Z,1.87
2022-08-12T19:23:38.667Z,1.77
2022-08-12T19:26:12.980Z,2.00
2022-08-12T19:28:48.717Z,1.87
2022-08-12T19:31:44.657Z,2.30
2022-08-12T19:38:02.483Z,1.87
2022-08-12T19:40:30.764Z,1.83
2022-08-12T19:43:18.916Z,1.70
2022-08-12T19:45:51.509Z,1.97
2022-08-12T19:48:24.177Z,1.43
2022-08-12T19:50:58.905Z,1.63
2022-08-12T19:53:58.327Z,1.60
2022-08-12T19:56:30.202Z,1.67
2022-08-12T19:59:18.725Z,1.90
2022-08-12T20:02:01.620Z,2.00
2022-08-12T20:04:37.745Z,2.10
2022-08-12T20:07:22.978Z,1.80
2022-08-12T20:09:56.513Z,2.10
2022-08-12T20:12:32.590Z,1.87
2022-08-12T20:15:05.453Z,1.73
2022-08-12T20:17:50.480Z,1.97
2022-08-12T20:20:28.290Z,3.30
2022-08-12T20:23:00.084Z,2.20
2022-08-12T20:25:52.647Z,1.83
2022-08-12T20:28:33.013Z,2.00
2022-08-12T20:31:05.478Z,1.73
2022-08-12T20:33:56.105Z,1.87
2022-08-12T20:36:41.134Z,2.20
2022-08-12T20:39:35.979Z,2.00
2022-08-12T20:42:07.088Z,2.07
2022-08-12T20:44:39.859Z,2.13
2022-08-12T20:47:19.433Z,2.20
2022-08-12T20:49:55.676Z,2.20
2022-08-12T20:52:35.972Z,2.23
2022-08-12T20:55:15.914Z,1.90
2022-08-12T20:58:02.984Z,2.50
2022-08-12T21:00:38.518Z,2.00
2022-08-12T21:03:27.745Z,1.83
2022-08-12T21:06:23.279Z,2.10
2022-08-12T21:09:02.439Z,2.03
2022-08-12T21:11:33.230Z,2.27
2022-08-12T21:14:10.683Z,2.33
2022-08-12T21:16:42.307Z,2.20
2022-08-12T21:19:22.194Z,1.90
2022-08-12T21:21:58.778Z,1.73
2022-08-12T21:24:32.456Z,1.93
2022-08-12T21:27:03.492Z,1.90
2022-08-12T21:29:40.057Z,2.10
2022-08-12T21:32:47.061Z,1.90
2022-08-12T21:35:19.282Z,2.40
2022-08-12T21:37:53.059Z,1.93
2022-08-12T21:40:21.819Z,2.10
2022-08-12T21:43:05.422Z,1.83
2022-08-12T21:45:46.917Z,2.27
2022-08-12T21:48:28.984Z,1.90
2022-08-12T21:50:57.586Z,1.90
2022-08-12T21:53:31.630Z,2.10
2022-08-12T21:56:33.910Z,2.20
2022-08-12T21:59:02.900Z,2.10
2022-08-12T22:01:48.604Z,1.93
2022-08-12T22:04:35.906Z,1.83
2022-08-12T22:07:06.922Z,2.10
2022-08-12T22:09:42.903Z,1.80
2022-08-12T22:12:29.884Z,2.53
2022-08-12T22:14:58.002Z,1.87
2022-08-12T22:17:50.493Z,2.07
2022-08-12T22:20:23.785Z,1.80
2022-08-12T22:23:02.188Z,2.33
2022-08-12T22:25:31.183Z,2.20
2022-08-12T22:28:18.066Z,2.10
2022-08-12T22:31:11.273Z,1.60
2022-08-12T22:33:54.201Z,2.37
2022-08-12T22:36:29.011Z,2.10
2022-08-12T22:38:58.979Z,1.73
2022-08-12T22:41:45.810Z,1.77
2022-08-12T22:44:31.318Z,2.35
2022-08-12T22:47:53.952Z,1.77
2022-08-12T22:50:28.753Z,1.85
2022-08-12T22:53:15.114Z,2.22
2022-08-12T22:55:59.733Z,1.73
2022-08-12T22:58:36.830Z,2.30
2022-08-12T23:01:13.686Z,2.00
2022-08-12T23:03:51.062Z,2.20
2022-08-12T23:06:25.502Z,2.08
2022-08-12T23:08:56.491Z,2.30
2022-08-12T23:11:25.554Z,2.13
2022-08-12T23:14:04.255Z,2.30
2022-08-12T23:16:34.138Z,2.08
2022-08-12T23:19:10.381Z,1.98
2022-08-12T23:22:05.288Z,2.05
2022-08-12T23:24:41.173Z,1.92
2022-08-12T23:27:50.136Z,1.95
2022-08-12T23:30:25.057Z,2.50
2022-08-12T23:33:00.657Z,2.50
2022-08-12T23:35:58.769Z,2.30
2022-08-12T23:38:30.688Z,1.77
2022-08-12T23:41:01.812Z,1.90
2022-08-12T23:43:38.861Z,2.38
2022-08-12T23:46:10.297Z,2.50
2022-08-12T23:48:38.733Z,1.83
2022-08-12T23:51:23.715Z,2.17
2022-08-12T23:54:00.252Z,2.13
2022-08-12T23:56:33.108Z,2.03
2022-08-12T23:59:02.926Z,1.90
